createdAt,value
2023-03-07T00:02:15.573Z,58.93
2023-03-07T00:07:14.649Z,57.56
2023-03-07T00:09:41.312Z,58.31
2023-03-07T00:12:08.681Z,59.08
2023-03-07T00:14:35.175Z,58.41
2023-03-07T00:17:01.631Z,57.53
2023-03-07T00:19:28.174Z,55.52
2023-03-07T00:21:54.512Z,53.92
2023-03-07T00:24:20.844Z,52.17
2023-03-07T00:26:47.290Z,52.30
2023-03-07T00:29:13.657Z,52.35
2023-03-07T00:31:40.115Z,51.01
2023-03-07T00:34:06.725Z,50.82
2023-03-07T00:36:33.087Z,50.95
2023-03-07T00:38:59.463Z,49.83
2023-03-07T00:41:27.312Z,49.92
2023-03-07T00:43:54.027Z,47.14
2023-03-07T00:46:21.248Z,45.54
2023-03-07T00:48:47.993Z,46.31
2023-03-07T00:51:15.775Z,45.81
2023-03-07T00:53:42.343Z,48.50
2023-03-07T00:56:13.719Z,50.41
2023-03-07T00:58:40.127Z,49.74
2023-03-07T01:01:06.957Z,49.99
2023-03-07T01:03:33.854Z,48.93
2023-03-07T01:06:04.486Z,46.89
2023-03-07T01:08:31.122Z,44.06
2023-03-07T01:11:01.446Z,43.72
2023-03-07T01:13:27.914Z,44.07
2023-03-07T01:15:54.335Z,44.65
2023-03-07T01:18:20.859Z,43.09
2023-03-07T01:20:47.206Z,41.74
2023-03-07T01:23:13.565Z,38.83
2023-03-07T01:25:40.954Z,39.05
2023-03-07T01:28:07.649Z,29.84
2023-03-07T01:30:34.045Z,28.47
2023-03-07T01:33:01.322Z,26.42
2023-03-07T01:35:28.063Z,25.83
2023-03-07T01:37:54.721Z,23.86
2023-03-07T01:40:21.915Z,23.49
2023-03-07T01:42:48.345Z,22.10
2023-03-07T01:45:14.695Z,22.43
2023-03-07T01:47:41.661Z,22.19
2023-03-07T01:50:11.716Z,21.36
2023-03-07T01:52:42.482Z,21.28
2023-03-07T01:55:16.415Z,20.56
2023-03-07T01:57:43.096Z,20.54
2023-03-07T02:00:11.787Z,20.23
2023-03-07T02:02:39.194Z,19.21
2023-03-07T02:05:22.016Z,19.36
2023-03-07T02:07:49.628Z,18.47
2023-03-07T02:10:16.709Z,18.06
2023-03-07T02:12:43.107Z,18.64
2023-03-07T02:15:10.411Z,20.66
2023-03-07T02:17:36.788Z,23.22
2023-03-07T02:20:09.715Z,36.81
2023-03-07T02:22:36.068Z,37.41
2023-03-07T02:25:12.724Z,40.33
2023-03-07T02:27:39.097Z,46.38
2023-03-07T02:30:06.169Z,49.57
2023-03-07T02:32:32.940Z,53.35
2023-03-07T02:34:59.349Z,56.92
2023-03-07T02:37:31.302Z,60.30
2023-03-07T02:39:57.706Z,62.84
2023-03-07T02:42:26.790Z,65.15
2023-03-07T02:45:00.825Z,67.75
2023-03-07T02:47:27.207Z,69.23
2023-03-07T02:49:53.693Z,71.43
2023-03-07T02:52:21.784Z,72.51
2023-03-07T02:54:48.341Z,74.88
2023-03-07T02:57:15.096Z,76.39
2023-03-07T02:59:41.524Z,78.85
2023-03-07T03:02:07.917Z,79.84
2023-03-07T03:04:34.311Z,81.89
2023-03-07T03:07:00.700Z,83.45
2023-03-07T03:09:27.331Z,86.79
2023-03-07T03:11:53.692Z,89.02
2023-03-07T03:14:20.548Z,91.38
2023-03-07T03:16:46.985Z,95.58
2023-03-07T03:19:13.328Z,98.67
2023-03-07T03:21:39.780Z,100.00
2023-03-07T03:24:06.858Z,100.00
2023-03-07T03:26:34.101Z,100.00
2023-03-07T03:29:00.533Z,100.00
2023-03-07T03:31:28.743Z,100.00
2023-03-07T03:33:55.144Z,100.00
2023-03-07T03:36:25.717Z,100.00
2023-03-07T03:38:53.129Z,100.00
2023-03-07T03:41:19.490Z,100.00
2023-03-07T03:43:45.894Z,100.00
2023-03-07T03:46:12.845Z,100.00
2023-03-07T03:48:39.383Z,100.00
2023-03-07T03:51:10.925Z,100.00
2023-03-07T03:53:38.599Z,100.00
2023-03-07T03:56:09.672Z,100.00
2023-03-07T03:58:36.213Z,100.00
2023-03-07T04:01:05.772Z,100.00
2023-03-07T04:03:37.965Z,100.00
2023-03-07T04:06:05.664Z,100.00
2023-03-07T04:08:32.461Z,100.00
2023-03-07T04:10:59.360Z,100.00
2023-03-07T04:13:25.803Z,100.00
2023-03-07T04:15:52.518Z,100.00
2023-03-07T04:18:19.245Z,100.00
2023-03-07T04:20:45.616Z,100.00
2023-03-07T04:23:11.948Z,100.00
2023-03-07T04:25:38.459Z,100.00
2023-03-07T04:28:04.910Z,100.00
2023-03-07T04:30:31.291Z,100.00
2023-03-07T04:32:57.856Z,100.00
2023-03-07T04:35:24.214Z,100.00
2023-03-07T04:37:50.658Z,100.00
2023-03-07T04:40:17.263Z,100.00
2023-03-07T04:42:43.641Z,100.00
2023-03-07T04:45:10.515Z,100.00
2023-03-07T04:47:36.890Z,100.00
2023-03-07T04:50:03.393Z,100.00
2023-03-07T04:52:29.756Z,100.00
2023-03-07T04:54:56.309Z,100.00
2023-03-07T04:57:22.682Z,100.00
2023-03-07T04:59:49.018Z,100.00
2023-03-07T05:02:15.579Z,100.00
2023-03-07T05:04:41.957Z,100.00
2023-03-07T05:07:08.912Z,100.00
2023-03-07T05:09:35.590Z,100.00
2023-03-07T05:12:01.952Z,100.00
2023-03-07T05:14:28.459Z,100.00
2023-03-07T05:16:55.042Z,100.00
2023-03-07T05:19:21.459Z,100.00
2023-03-07T05:21:49.135Z,100.00
2023-03-07T05:24:15.561Z,100.00
2023-03-07T05:26:41.925Z,100.00
2023-03-07T05:29:08.286Z,100.00
2023-03-07T05:31:34.834Z,100.00
2023-03-07T05:34:01.241Z,100.00
2023-03-07T05:36:28.106Z,100.00
2023-03-07T05:38:56.557Z,100.00
2023-03-07T05:41:23.219Z,100.00
2023-03-07T05:43:49.567Z,100.00
2023-03-07T05:46:15.999Z,100.00
2023-03-07T05:48:42.401Z,100.00
2023-03-07T05:51:08.753Z,100.00
2023-03-07T05:53:35.382Z,100.00
2023-03-07T05:56:01.729Z,100.00
2023-03-07T05:58:28.052Z,100.00
2023-03-07T06:00:54.567Z,100.00
2023-03-07T06:03:20.987Z,100.00
2023-03-07T06:05:50.554Z,100.00
2023-03-07T06:08:17.132Z,100.00
2023-03-07T06:10:43.484Z,100.00
2023-03-07T06:13:15.416Z,100.00
2023-03-07T06:15:42.054Z,100.00
2023-03-07T06:18:08.422Z,100.00
2023-03-07T06:20:34.814Z,100.00
2023-03-07T06:23:01.216Z,100.00
2023-03-07T06:25:27.539Z,100.00
2023-03-07T06:27:59.578Z,100.00
2023-03-07T06:30:26.023Z,100.00
2023-03-07T06:32:52.411Z,100.00
2023-03-07T06:35:18.771Z,100.00
2023-03-07T06:37:45.305Z,100.00
2023-03-07T06:40:11.989Z,100.00
2023-03-07T06:42:38.351Z,100.00
2023-03-07T06:45:05.438Z,100.00
2023-03-07T06:47:31.804Z,100.00
2023-03-07T06:49:58.185Z,100.00
2023-03-07T06:52:24.834Z,100.00
2023-03-07T06:54:51.226Z,100.00
2023-03-07T06:57:17.787Z,100.00
2023-03-07T06:59:44.407Z,100.00
2023-03-07T07:02:12.722Z,100.00
2023-03-07T07:04:39.153Z,100.00
2023-03-07T07:07:07.304Z,100.00
2023-03-07T07:09:34.277Z,100.00
2023-03-07T07:12:00.602Z,100.00
2023-03-07T07:14:26.999Z,100.00
2023-03-07T07:16:53.370Z,100.00
2023-03-07T07:19:19.792Z,100.00
2023-03-07T07:21:46.438Z,100.00
2023-03-07T07:24:12.906Z,100.00
2023-03-07T07:26:39.251Z,100.00
2023-03-07T07:29:05.622Z,100.00
2023-03-07T07:31:31.988Z,100.00
2023-03-07T07:33:58.614Z,100.00
2023-03-07T07:36:25.272Z,100.00
2023-03-07T07:38:51.658Z,100.00
2023-03-07T07:41:21.006Z,100.00
2023-03-07T07:43:50.116Z,100.00
2023-03-07T07:46:16.519Z,100.00
2023-03-07T07:48:42.941Z,100.00
2023-03-07T07:51:09.366Z,100.00
2023-03-07T07:53:35.793Z,100.00
2023-03-07T07:56:02.165Z,100.00
2023-03-07T07:58:28.575Z,100.00
2023-03-07T08:00:54.980Z,100.00
2023-03-07T08:03:21.734Z,100.00
2023-03-07T08:05:48.690Z,100.00
2023-03-07T08:08:16.316Z,100.00
2023-03-07T08:10:44.143Z,100.00
2023-03-07T08:13:14.051Z,100.00
2023-03-07T08:15:40.859Z,100.00
2023-03-07T08:18:07.234Z,100.00
2023-03-07T08:20:34.022Z,100.00
2023-03-07T08:23:00.348Z,100.00
2023-03-07T08:25:26.699Z,100.00
2023-03-07T08:27:54.949Z,100.00
2023-03-07T08:30:25.539Z,100.00
2023-03-07T08:32:52.598Z,100.00
2023-03-07T08:35:19.264Z,100.00
2023-03-07T08:37:45.804Z,100.00
2023-03-07T08:40:14.295Z,100.00
2023-03-07T08:42:40.842Z,100.00
2023-03-07T08:45:07.685Z,100.00
2023-03-07T08:47:34.118Z,100.00
2023-03-07T08:50:00.536Z,100.00
2023-03-07T08:52:26.893Z,100.00
2023-03-07T08:54:53.267Z,100.00
2023-03-07T08:57:19.664Z,100.00
2023-03-07T08:59:46.009Z,100.00
2023-03-07T09:02:12.446Z,100.00
2023-03-07T09:04:39.071Z,100.00
2023-03-07T09:07:05.475Z,100.00
2023-03-07T09:09:31.805Z,100.00
2023-03-07T09:11:58.213Z,100.00
2023-03-07T09:14:24.585Z,100.00
2023-03-07T09:16:50.938Z,100.00
2023-03-07T09:19:17.325Z,100.00
2023-03-07T09:21:43.723Z,100.00
2023-03-07T09:24:10.092Z,100.00
2023-03-07T09:26:36.688Z,100.00
2023-03-07T09:29:03.071Z,100.00
2023-03-07T09:31:29.430Z,100.00
2023-03-07T09:33:56.683Z,100.00
2023-03-07T09:36:23.242Z,100.00
2023-03-07T09:38:49.658Z,100.00
2023-03-07T09:41:28.260Z,100.00
2023-03-07T09:44:00.398Z,100.00
2023-03-07T09:47:10.435Z,100.00
2023-03-07T09:49:49.901Z,100.00
2023-03-07T09:52:24.648Z,100.00
2023-03-07T09:55:11.608Z,100.00
2023-03-07T09:57:50.088Z,100.00
2023-03-07T10:00:26.973Z,100.00
2023-03-07T10:02:54.930Z,100.00
2023-03-07T10:05:31.288Z,100.00
2023-03-07T10:07:57.923Z,100.00
2023-03-07T10:10:26.030Z,100.00
2023-03-07T10:13:17.878Z,100.00
2023-03-07T10:15:47.653Z,100.00
2023-03-07T10:18:42.597Z,100.00
2023-03-07T10:21:17.883Z,100.00
2023-03-07T10:24:12.594Z,100.00
2023-03-07T10:26:44.005Z,100.00
2023-03-07T10:29:15.576Z,100.00
2023-03-07T10:31:44.876Z,100.00
2023-03-07T10:34:26.435Z,100.00
2023-03-07T10:37:21.052Z,100.00
2023-03-07T10:39:54.563Z,100.00
2023-03-07T10:42:25.261Z,100.00
2023-03-07T10:44:51.769Z,100.00
2023-03-07T10:47:23.366Z,100.00
2023-03-07T10:49:51.350Z,100.00
2023-03-07T10:52:28.278Z,100.00
2023-03-07T10:54:55.437Z,100.00
2023-03-07T10:57:26.795Z,100.00
2023-03-07T10:59:53.208Z,100.00
2023-03-07T11:02:28.721Z,100.00
2023-03-07T11:04:55.182Z,100.00
2023-03-07T11:07:31.899Z,100.00
2023-03-07T11:09:59.086Z,100.00
2023-03-07T11:12:26.743Z,100.00
2023-03-07T11:15:00.207Z,100.00
2023-03-07T11:17:46.356Z,100.00
2023-03-07T11:20:24.282Z,100.00
2023-03-07T11:22:52.133Z,100.00
2023-03-07T11:25:23.131Z,100.00
2023-03-07T11:27:52.597Z,100.00
2023-03-07T11:30:19.155Z,100.00
2023-03-07T11:33:00.377Z,100.00
2023-03-07T11:35:50.256Z,100.00
2023-03-07T11:38:31.909Z,100.00
2023-03-07T11:41:04.001Z,100.00
2023-03-07T11:43:52.147Z,100.00
2023-03-07T11:46:30.790Z,100.00
2023-03-07T11:49:06.008Z,100.00
2023-03-07T11:51:44.781Z,100.00
2023-03-07T11:54:11.260Z,100.00
2023-03-07T11:56:40.727Z,100.00
2023-03-07T11:59:17.444Z,100.00
2023-03-07T12:01:54.410Z,100.00
2023-03-07T12:04:39.885Z,100.00
2023-03-07T12:07:21.499Z,100.00
2023-03-07T12:10:31.611Z,100.00
2023-03-07T12:13:39.423Z,100.00
2023-03-07T12:16:32.457Z,100.00
2023-03-07T12:19:32.834Z,100.00
2023-03-07T12:22:06.198Z,100.00
2023-03-07T12:24:38.297Z,100.00
2023-03-07T12:27:19.770Z,100.00
2023-03-07T12:29:51.812Z,100.00
2023-03-07T12:32:21.214Z,100.00
2023-03-07T12:34:56.259Z,100.00
2023-03-07T12:37:25.195Z,100.00
2023-03-07T12:40:02.036Z,100.00
2023-03-07T12:42:31.916Z,100.00
2023-03-07T12:45:07.401Z,100.00
2023-03-07T12:47:55.865Z,100.00
2023-03-07T12:50:37.699Z,100.00
2023-03-07T12:53:10.429Z,100.00
2023-03-07T12:55:44.948Z,100.00
2023-03-07T12:58:34.369Z,100.00
2023-03-07T13:01:07.258Z,100.00
2023-03-07T13:04:12.759Z,100.00
2023-03-07T13:06:41.561Z,100.00
2023-03-07T13:09:07.977Z,100.00
2023-03-07T13:11:34.737Z,100.00
2023-03-07T13:14:02.375Z,100.00
2023-03-07T13:16:47.748Z,100.00
2023-03-07T13:19:39.300Z,100.00
2023-03-07T13:22:14.907Z,100.00
2023-03-07T13:24:41.965Z,100.00
2023-03-07T13:27:18.361Z,100.00
2023-03-07T13:30:03.052Z,100.00
2023-03-07T13:32:48.472Z,100.00
2023-03-07T13:35:37.613Z,100.00
2023-03-07T13:38:22.821Z,100.00
2023-03-07T13:41:11.679Z,100.00
2023-03-07T13:43:44.387Z,100.00
2023-03-07T13:46:29.656Z,100.00
2023-03-07T13:48:56.070Z,100.00
2023-03-07T13:51:22.486Z,100.00
2023-03-07T13:53:57.056Z,100.00
2023-03-07T13:56:28.530Z,100.00
2023-03-07T13:58:56.799Z,100.00
2023-03-07T14:01:42.865Z,100.00
2023-03-07T14:04:39.393Z,100.00
2023-03-07T14:07:35.092Z,100.00
2023-03-07T14:10:23.085Z,100.00
2023-03-07T14:13:14.191Z,100.00
2023-03-07T14:16:17.894Z,100.00
2023-03-07T14:19:06.038Z,100.00
2023-03-07T14:21:41.486Z,100.00
2023-03-07T14:24:54.800Z,100.00
2023-03-07T14:27:21.148Z,100.00
2023-03-07T14:29:52.255Z,100.00
2023-03-07T14:32:30.211Z,100.00
2023-03-07T14:34:57.218Z,100.00
2023-03-07T14:37:30.301Z,100.00
2023-03-07T14:39:59.954Z,100.00
2023-03-07T14:42:48.663Z,100.00
2023-03-07T14:45:39.698Z,100.00
2023-03-07T14:48:29.247Z,100.00
2023-03-07T14:50:56.065Z,100.00
2023-03-07T14:53:24.791Z,100.00
2023-03-07T14:55:53.629Z,100.00
2023-03-07T14:58:23.926Z,100.00
2023-03-07T15:01:00.713Z,100.00
2023-03-07T15:03:27.405Z,100.00
2023-03-07T15:05:55.685Z,100.00
2023-03-07T15:08:30.580Z,100.00
2023-03-07T15:11:02.241Z,100.00
2023-03-07T15:13:32.329Z,100.00
2023-03-07T15:16:04.665Z,100.00
2023-03-07T15:18:33.822Z,100.00
2023-03-07T15:21:00.189Z,100.00
2023-03-07T15:23:30.004Z,100.00
2023-03-07T15:26:06.994Z,100.00
2023-03-07T15:28:38.003Z,100.00
2023-03-07T15:31:04.881Z,100.00
2023-03-07T15:33:31.963Z,100.00
2023-03-07T15:36:13.759Z,100.00
2023-03-07T15:38:41.888Z,100.00
2023-03-07T15:41:27.574Z,100.00
2023-03-07T15:44:07.384Z,100.00
2023-03-07T15:46:33.789Z,100.00
2023-03-07T15:49:00.158Z,100.00
2023-03-07T15:51:27.391Z,100.00
2023-03-07T15:54:04.390Z,100.00
2023-03-07T15:56:34.598Z,100.00
2023-03-07T15:59:02.723Z,100.00
2023-03-07T16:01:29.096Z,100.00
2023-03-07T16:04:05.559Z,100.00
2023-03-07T16:06:37.990Z,100.00
2023-03-07T16:09:05.475Z,100.00
2023-03-07T16:11:32.319Z,100.00
2023-03-07T16:13:58.689Z,100.00
2023-03-07T16:16:29.225Z,100.00
2023-03-07T16:18:57.802Z,100.00
2023-03-07T16:21:24.387Z,100.00
2023-03-07T16:23:50.897Z,100.00
2023-03-07T16:26:22.025Z,100.00
2023-03-07T16:28:49.275Z,100.00
2023-03-07T16:31:16.520Z,100.00
2023-03-07T16:33:43.775Z,100.00
2023-03-07T16:36:10.681Z,100.00
2023-03-07T16:38:37.098Z,100.00
2023-03-07T16:41:06.195Z,100.00
2023-03-07T16:43:38.726Z,100.00
2023-03-07T16:46:07.074Z,100.00
2023-03-07T16:48:33.660Z,100.00
2023-03-07T16:51:00.495Z,100.00
2023-03-07T16:53:26.871Z,100.00
2023-03-07T16:55:54.405Z,100.00
2023-03-07T16:58:23.045Z,100.00
2023-03-07T17:00:49.451Z,100.00
2023-03-07T17:03:16.055Z,100.00
2023-03-07T17:05:42.437Z,100.00
2023-03-07T17:08:08.869Z,100.00
2023-03-07T17:10:36.342Z,100.00
2023-03-07T17:13:02.734Z,100.00
2023-03-07T17:15:33.075Z,100.00
2023-03-07T17:18:00.383Z,100.00
2023-03-07T17:20:26.981Z,100.00
2023-03-07T17:22:53.844Z,100.00
2023-03-07T17:25:21.037Z,100.00
2023-03-07T17:27:59.651Z,100.00
2023-03-07T17:30:27.854Z,100.00
2023-03-07T17:32:54.288Z,100.00
2023-03-07T17:35:20.741Z,100.00
2023-03-07T17:37:49.778Z,100.00
2023-03-07T17:40:16.171Z,100.00
2023-03-07T17:42:42.849Z,100.00
2023-03-07T17:45:10.940Z,100.00
2023-03-07T17:47:37.300Z,100.00
2023-03-07T17:50:05.376Z,100.00
2023-03-07T17:52:32.567Z,100.00
2023-03-07T17:54:59.264Z,100.00
2023-03-07T17:57:26.716Z,100.00
2023-03-07T17:59:54.161Z,100.00
2023-03-07T18:02:20.659Z,100.00
2023-03-07T18:04:47.095Z,100.00
2023-03-07T18:07:13.640Z,100.00
2023-03-07T18:09:40.012Z,100.00
2023-03-07T18:12:06.828Z,100.00
2023-03-07T18:14:33.369Z,100.00
2023-03-07T18:16:59.822Z,100.00
2023-03-07T18:19:27.394Z,100.00
2023-03-07T18:21:54.430Z,100.00
2023-03-07T18:24:23.002Z,100.00
2023-03-07T18:26:49.732Z,100.00
2023-03-07T18:29:16.272Z,100.00
2023-03-07T18:31:42.913Z,100.00
2023-03-07T18:34:09.282Z,100.00
2023-03-07T18:36:35.692Z,100.00
2023-03-07T18:39:02.143Z,100.00
2023-03-07T18:41:28.577Z,100.00
2023-03-07T18:43:56.072Z,100.00
2023-03-07T18:46:23.697Z,100.00
2023-03-07T18:48:50.324Z,100.00
2023-03-07T18:51:18.378Z,100.00
2023-03-07T18:53:44.785Z,100.00
2023-03-07T18:56:15.129Z,100.00
2023-03-07T18:58:41.745Z,100.00
2023-03-07T19:01:12.263Z,100.00
2023-03-07T19:03:38.780Z,100.00
2023-03-07T19:06:05.456Z,100.00
2023-03-07T19:08:31.867Z,100.00
2023-03-07T19:11:01.712Z,100.00
2023-03-07T19:13:28.312Z,100.00
2023-03-07T19:16:08.416Z,100.00
2023-03-07T19:18:35.168Z,100.00
2023-03-07T19:21:08.525Z,100.00
2023-03-07T19:23:34.967Z,100.00
2023-03-07T19:26:05.325Z,100.00
2023-03-07T19:28:31.778Z,100.00
2023-03-07T19:30:58.273Z,100.00
2023-03-07T19:33:25.029Z,100.00
2023-03-07T19:36:21.558Z,100.00
2023-03-07T19:38:48.926Z,100.00
2023-03-07T19:41:16.650Z,100.00
2023-03-07T19:43:43.095Z,100.00
2023-03-07T19:46:11.016Z,100.00
2023-03-07T19:48:39.808Z,100.00
2023-03-07T19:51:19.809Z,100.00
2023-03-07T19:53:46.778Z,100.00
2023-03-07T19:56:24.503Z,100.00
2023-03-07T19:58:50.984Z,100.00
2023-03-07T20:01:18.852Z,100.00
2023-03-07T20:03:45.383Z,100.00
2023-03-07T20:06:18.731Z,100.00
2023-03-07T20:08:49.764Z,100.00
2023-03-07T20:11:20.997Z,100.00
2023-03-07T20:13:48.120Z,100.00
2023-03-07T20:16:15.945Z,100.00
2023-03-07T20:18:42.409Z,100.00
2023-03-07T20:21:10.548Z,100.00
2023-03-07T20:23:37.089Z,100.00
2023-03-07T20:26:11.130Z,100.00
2023-03-07T20:28:37.752Z,100.00
2023-03-07T20:31:05.735Z,100.00
2023-03-07T20:33:32.094Z,100.00
2023-03-07T20:36:09.528Z,100.00
2023-03-07T20:38:36.927Z,100.00
2023-03-07T20:41:05.126Z,100.00
2023-03-07T20:43:32.193Z,100.00
2023-03-07T20:46:05.711Z,100.00
2023-03-07T20:48:32.225Z,100.00
2023-03-07T20:51:21.275Z,100.00
2023-03-07T20:53:48.448Z,100.00
2023-03-07T20:56:14.987Z,100.00
2023-03-07T20:58:41.458Z,100.00
2023-03-07T21:01:07.824Z,100.00
2023-03-07T21:03:34.255Z,100.00
2023-03-07T21:06:01.328Z,100.00
2023-03-07T21:08:28.868Z,100.00
2023-03-07T21:11:02.611Z,100.00
2023-03-07T21:13:29.110Z,100.00
2023-03-07T21:15:56.549Z,100.00
2023-03-07T21:18:23.298Z,100.00
2023-03-07T21:20:49.668Z,100.00
2023-03-07T21:23:16.152Z,100.00
2023-03-07T21:25:42.673Z,100.00
2023-03-07T21:28:09.005Z,100.00
2023-03-07T21:30:35.416Z,100.00
2023-03-07T21:33:01.995Z,100.00
2023-03-07T21:35:28.387Z,100.00
2023-03-07T21:37:54.815Z,100.00
2023-03-07T21:40:21.452Z,100.00
2023-03-07T21:42:47.935Z,100.00
2023-03-07T21:45:14.513Z,100.00
2023-03-07T21:47:41.415Z,100.00
2023-03-07T21:50:08.296Z,100.00
2023-03-07T21:52:34.628Z,100.00
2023-03-07T21:55:01.165Z,100.00
2023-03-07T21:57:28.836Z,100.00
2023-03-07T21:59:55.194Z,100.00
2023-03-07T22:02:22.985Z,100.00
2023-03-07T22:04:49.884Z,100.00
2023-03-07T22:07:16.313Z,100.00
2023-03-07T22:09:42.678Z,100.00
2023-03-07T22:12:09.070Z,100.00
2023-03-07T22:14:35.417Z,100.00
2023-03-07T22:17:01.945Z,100.00
2023-03-07T22:19:28.292Z,100.00
2023-03-07T22:21:54.623Z,100.00
2023-03-07T22:24:21.015Z,100.00
2023-03-07T22:26:47.348Z,100.00
2023-03-07T22:29:13.763Z,100.00
2023-03-07T22:31:40.186Z,100.00
2023-03-07T22:34:06.629Z,100.00
2023-03-07T22:36:33.002Z,100.00
2023-03-07T22:38:59.688Z,100.00
2023-03-07T22:41:26.270Z,100.00
2023-03-07T22:43:52.715Z,100.00
2023-03-07T22:46:19.388Z,100.00
2023-03-07T22:48:45.843Z,100.00
2023-03-07T22:51:14.158Z,100.00
2023-03-07T22:53:40.951Z,100.00
2023-03-07T22:56:29.420Z,100.00
2023-03-07T22:58:56.141Z,100.00
2023-03-07T23:01:24.337Z,100.00
2023-03-07T23:03:51.136Z,100.00
2023-03-07T23:06:17.634Z,100.00
2023-03-07T23:08:45.340Z,100.00
2023-03-07T23:11:11.834Z,100.00
2023-03-07T23:13:38.408Z,100.00
2023-03-07T23:16:08.431Z,100.00
2023-03-07T23:18:34.961Z,100.00
2023-03-07T23:21:02.695Z,100.00
2023-03-07T23:23:29.041Z,100.00
2023-03-07T23:25:55.394Z,100.00
2023-03-07T23:28:21.984Z,100.00
2023-03-07T23:30:48.802Z,100.00
2023-03-07T23:33:15.201Z,100.00
2023-03-07T23:35:41.782Z,100.00
2023-03-07T23:38:08.200Z,100.00
2023-03-07T23:40:37.238Z,100.00
2023-03-07T23:43:04.269Z,100.00
2023-03-07T23:45:30.888Z,100.00
2023-03-07T23:47:57.293Z,100.00
2023-03-07T23:50:24.001Z,100.00
2023-03-07T23:52:50.337Z,100.00
2023-03-07T23:55:16.769Z,100.00
2023-03-07T23:57:43.219Z,100.00
